Time;durP1;ratioP1;P1;durP2;ratioP2;P2;SDS_P1;SDS_P2;PMS_P1;PMS_P2;Temp;Humidity;BMP_temperature;BMP_pressure;BME280_temperature;BME280_humidity;BME280_pressure;Samples;Min_cycle;Max_cycle;Signal;HPM_P1;HPM_P2
2023/10/03 00:00:38;;;;;;;21.15;9.35;;;22.50;64.60;24.20;100879.00;;;;4959426;28;20203;-81
2023/10/03 00:03:08;;;;;;;16.50;8.05;;;22.50;64.60;24.10;100874.00;;;;4947704;28;20552;-81
2023/10/03 00:05:35;;;;;;;21.98;9.57;;;22.50;64.60;24.10;100861.00;;;;4947699;28;20695;-80
2023/10/03 00:08:05;;;;;;;18.17;10.13;;;22.50;64.60;24.10;100862.00;;;;4948960;29;20203;-80
2023/10/03 00:10:33;;;;;;;20.00;9.98;;;22.50;64.70;24.10;100854.00;;;;4948035;28;20223;-80
2023/10/03 00:13:01;;;;;;;19.90;9.35;;;22.50;64.70;24.10;100845.00;;;;4946879;28;20585;-80
2023/10/03 00:15:28;;;;;;;18.13;9.65;;;22.50;64.70;24.10;100844.00;;;;4992587;28;20203;-80
2023/10/03 00:17:55;;;;;;;18.58;9.85;;;22.50;64.70;24.10;100836.00;;;;4962868;28;20393;-80
2023/10/03 00:20:23;;;;;;;22.13;10.45;;;22.50;64.60;24.10;100832.00;;;;4948249;28;20195;-80
2023/10/03 00:22:51;;;;;;;20.85;10.55;;;22.50;64.60;24.10;100828.00;;;;4942208;28;20207;-80
2023/10/03 00:25:23;;;;;;;19.70;9.40;;;22.50;64.60;24.10;100823.00;;;;4947324;28;20260;-80
2023/10/03 00:27:53;;;;;;;19.77;9.30;;;22.50;64.50;24.10;100820.00;;;;4948324;28;20580;-80
2023/10/03 00:30:24;;;;;;;18.10;9.02;;;22.50;64.50;24.10;100811.00;;;;4940992;28;20211;-80
2023/10/03 00:32:52;;;;;;;15.98;8.43;;;22.50;64.40;24.10;100808.00;;;;4948360;29;20257;-80
2023/10/03 00:35:20;;;;;;;21.52;9.38;;;22.50;64.40;24.10;100808.00;;;;4961113;28;20218;-80
2023/10/03 00:37:50;;;;;;;23.38;9.60;;;22.50;64.30;24.00;100802.00;;;;4948017;28;20226;-80
2023/10/03 00:40:27;;;;;;;18.58;9.43;;;22.50;64.30;24.00;100797.00;;;;4948147;28;20227;-80
2023/10/03 00:42:59;;;;;;;21.98;10.07;;;22.40;64.20;24.00;100796.00;;;;4946707;28;20210;-80
2023/10/03 00:45:26;;;;;;;20.98;9.75;;;22.50;64.30;24.00;100785.00;;;;4948412;28;20665;-80
2023/10/03 00:47:56;;;;;;;19.58;9.45;;;22.50;64.30;24.00;100783.00;;;;4948035;28;20214;-80
2023/10/03 00:50:25;;;;;;;17.98;9.30;;;22.50;64.30;24.00;100781.00;;;;4948204;28;20648;-80
2023/10/03 00:52:55;;;;;;;16.02;8.30;;;22.50;64.20;24.00;100777.00;;;;4960325;28;20691;-80
2023/10/03 00:55:26;;;;;;;19.73;10.15;;;22.40;64.10;23.90;100767.00;;;;4947429;28;20229;-80
2023/10/03 00:58:06;;;;;;;19.15;9.82;;;22.40;64.20;24.00;100758.00;;;;4944069;28;20697;-80
2023/10/03 01:00:37;;;;;;;17.38;10.15;;;22.40;64.20;24.00;100750.00;;;;4947170;28;20201;-80
2023/10/03 01:03:06;;;;;;;24.65;9.93;;;22.40;64.10;24.00;100745.00;;;;4947644;28;20203;-80
2023/10/03 01:05:33;;;;;;;19.10;9.50;;;22.40;64.10;23.90;100745.00;;;;4946026;28;20207;-79
2023/10/03 01:08:00;;;;;;;24.05;10.45;;;22.40;64.20;23.90;100744.00;;;;4960081;28;20652;-80
2023/10/03 01:10:29;;;;;;;28.13;10.65;;;22.40;64.20;23.90;100731.00;;;;4946839;28;20192;-79
2023/10/03 01:12:55;;;;;;;21.48;9.07;;;22.40;64.20;23.90;100734.00;;;;4946478;28;20207;-79
2023/10/03 01:15:23;;;;;;;19.70;9.98;;;22.30;64.10;23.90;100725.00;;;;4946642;29;20199;-79
2023/10/03 01:17:53;;;;;;;21.08;9.70;;;22.40;64.20;23.90;100727.00;;;;4944093;28;20673;-79
2023/10/03 01:20:28;;;;;;;20.77;10.63;;;22.30;64.20;23.90;100716.00;;;;4946909;28;20211;-79
2023/10/03 01:22:55;;;;;;;26.13;10.50;;;22.40;64.20;23.90;100710.00;;;;4946462;28;20202;-79
2023/10/03 01:25:27;;;;;;;18.60;9.88;;;22.30;64.10;23.90;100704.00;;;;4958578;28;20199;-79
2023/10/03 01:27:56;;;;;;;22.40;9.80;;;22.30;64.20;23.90;100705.00;;;;4944568;28;20227;-79
2023/10/03 01:30:23;;;;;;;23.65;10.93;;;22.30;64.20;23.90;100709.00;;;;4946559;29;20207;-79
2023/10/03 01:32:55;;;;;;;21.45;11.15;;;22.40;64.30;23.90;100699.00;;;;4946812;28;20207;-79
2023/10/03 01:35:22;;;;;;;20.00;10.32;;;22.30;64.20;23.90;100690.00;;;;4947188;28;20203;-79
2023/10/03 01:37:50;;;;;;;22.30;10.10;;;22.30;64.10;23.90;100677.00;;;;4946384;28;20211;-79
2023/10/03 01:40:17;;;;;;;20.10;9.23;;;22.30;64.10;23.90;100679.00;;;;4944193;28;20234;-79
2023/10/03 01:42:47;;;;;;;29.25;10.68;;;22.30;64.30;23.80;100666.00;;;;4949130;28;20203;-79
2023/10/03 01:45:17;;;;;;;20.50;9.73;;;22.30;64.10;23.80;100660.00;;;;4945936;28;20203;-79
2023/10/03 01:47:47;;;;;;;27.55;11.25;;;22.30;64.10;23.80;100655.00;;;;4944042;28;20672;-79
2023/10/03 01:50:17;;;;;;;18.60;9.25;;;22.30;64.10;23.80;100650.00;;;;4945590;28;20203;-79
2023/10/03 01:52:46;;;;;;;21.70;9.55;;;22.30;64.10;23.80;100655.00;;;;4945534;29;20199;-79
2023/10/03 01:55:16;;;;;;;21.70;10.02;;;22.30;64.10;23.80;100663.00;;;;4945158;28;20603;-79
2023/10/03 01:57:46;;;;;;;19.60;8.98;;;22.30;64.10;23.80;100654.00;;;;4942646;28;20203;-79
2023/10/03 02:00:25;;;;;;;23.23;10.85;;;22.20;64.10;23.80;100654.00;;;;4973651;28;20883;-79
2023/10/03 02:02:53;;;;;;;20.45;10.02;;;22.20;64.10;23.80;100651.00;;;;4945633;28;20290;-79
2023/10/03 02:05:23;;;;;;;23.17;10.52;;;22.20;64.20;23.80;100651.00;;;;4945498;28;20195;-79
2023/10/03 02:07:51;;;;;;;22.70;10.80;;;22.30;64.20;23.80;100651.00;;;;4944917;28;20212;-79
2023/10/03 02:10:18;;;;;;;23.00;10.15;;;22.20;64.10;23.80;100647.00;;;;4944320;28;20635;-79
2023/10/03 02:12:49;;;;;;;21.10;9.65;;;22.20;64.10;23.80;100657.00;;;;4945687;28;20756;-79
2023/10/03 02:15:22;;;;;;;25.33;10.20;;;22.20;64.10;23.70;100646.00;;;;4946340;28;20199;-80
2023/10/03 02:17:53;;;;;;;22.27;10.60;;;22.20;64.20;23.70;100644.00;;;;4964520;28;20203;-80
2023/10/03 02:20:25;;;;;;;18.02;8.90;;;22.20;64.20;23.70;100625.00;;;;4957201;28;20238;-79
2023/10/03 02:22:56;;;;;;;23.15;9.98;;;22.20;64.20;23.70;100636.00;;;;4948632;28;20286;-79
2023/10/03 02:25:26;;;;;;;22.20;10.18;;;22.20;64.20;23.70;100621.00;;;;4947724;28;20290;-80
2023/10/03 02:27:54;;;;;;;16.80;8.27;;;22.20;64.20;23.70;100630.00;;;;4940582;28;20207;-79
2023/10/03 02:30:25;;;;;;;21.63;9.18;;;22.10;64.10;23.70;100615.00;;;;4948543;28;20581;-80
2023/10/03 02:32:54;;;;;;;20.15;9.23;;;22.10;64.20;23.70;100614.00;;;;4952720;28;20249;-79
2023/10/03 02:35:23;;;;;;;20.90;10.07;;;22.10;64.20;23.70;100623.00;;;;4948600;28;20282;-79
2023/10/03 02:37:53;;;;;;;24.67;9.32;;;22.10;64.30;23.70;100634.00;;;;4942816;29;20268;-79
2023/10/03 02:40:22;;;;;;;18.23;9.25;;;22.10;64.30;23.70;100644.00;;;;4948181;28;20227;-79
2023/10/03 02:42:55;;;;;;;21.27;9.80;;;22.10;64.30;23.70;100636.00;;;;4949192;28;20203;-79
2023/10/03 02:45:23;;;;;;;18.88;9.52;;;22.10;64.30;23.70;100624.00;;;;4950772;28;20199;-79
2023/10/03 02:47:52;;;;;;;22.92;10.35;;;22.10;64.30;23.70;100621.00;;;;4947760;28;20206;-79
2023/10/03 02:50:19;;;;;;;24.42;10.45;;;22.10;64.30;23.70;100613.00;;;;4961874;28;20574;-79
2023/10/03 02:52:46;;;;;;;22.52;9.93;;;22.20;64.40;23.70;100609.00;;;;4949913;28;20489;-79
2023/10/03 02:55:14;;;;;;;21.98;10.23;;;22.20;64.40;23.70;100609.00;;;;4949801;28;20196;-79
2023/10/03 02:57:41;;;;;;;20.65;9.68;;;22.20;64.50;23.80;100603.00;;;;4949504;28;20245;-79
2023/10/03 03:00:12;;;;;;;18.35;9.35;;;22.20;64.50;23.80;100602.00;;;;4947930;28;20223;-79
2023/10/03 03:02:42;;;;;;;19.58;9.45;;;22.30;64.50;23.80;100591.00;;;;4948418;28;20199;-79
2023/10/03 03:05:11;;;;;;;18.00;8.50;;;22.30;64.50;23.80;100593.00;;;;4949285;28;20198;-79
2023/10/03 03:07:38;;;;;;;17.73;9.15;;;22.30;64.50;23.90;100591.00;;;;4962001;28;20203;-79
2023/10/03 03:10:08;;;;;;;16.77;8.30;;;22.40;64.40;23.90;100588.00;;;;4949404;28;20205;-79
2023/10/03 03:12:35;;;;;;;18.73;9.10;;;22.40;64.40;24.00;100583.00;;;;4948630;28;20599;-79
2023/10/03 03:15:07;;;;;;;16.98;8.35;;;22.50;64.50;24.00;100577.00;;;;4948128;29;20199;-79
2023/10/03 03:17:35;;;;;;;16.15;7.82;;;22.50;64.40;24.00;100580.00;;;;4946691;28;20206;-79
2023/10/03 03:20:17;;;;;;;18.13;8.55;;;22.50;64.30;24.00;100588.00;;;;4993783;28;20223;-79
2023/10/03 03:22:47;;;;;;;20.95;8.75;;;22.50;64.30;24.10;100580.00;;;;4948497;28;20218;-79
2023/10/03 03:25:24;;;;;;;20.63;8.55;;;22.60;64.20;24.10;100583.00;;;;4950013;28;20203;-80
2023/10/03 03:27:54;;;;;;;15.25;7.95;;;22.60;64.20;24.10;100579.00;;;;4947181;28;20217;-78
2023/10/03 03:30:33;;;;;;;19.50;9.00;;;22.60;64.10;24.20;100583.00;;;;4946080;28;20215;-79
2023/10/03 03:33:06;;;;;;;14.27;7.47;;;22.70;64.20;24.20;100587.00;;;;4941269;28;20290;-79
2023/10/03 03:35:39;;;;;;;15.40;7.68;;;22.70;64.20;24.20;100587.00;;;;4948434;28;20199;-79
2023/10/03 03:38:15;;;;;;;19.58;7.63;;;22.70;64.20;24.20;100593.00;;;;4947529;28;20602;-79
2023/10/03 03:40:46;;;;;;;16.17;7.43;;;22.80;64.10;24.20;100588.00;;;;4951434;28;20346;-79
2023/10/03 03:43:16;;;;;;;17.05;7.53;;;22.80;64.10;24.30;100580.00;;;;4954767;28;20612;-80
2023/10/03 03:45:44;;;;;;;14.20;6.75;;;22.80;64.10;24.30;100592.00;;;;4949329;28;20249;-78
2023/10/03 03:48:14;;;;;;;13.50;6.35;;;22.90;64.30;24.30;100599.00;;;;4948549;28;20652;-78
2023/10/03 03:50:41;;;;;;;15.38;7.55;;;22.90;64.30;24.40;100590.00;;;;4946611;28;20214;-79
2023/10/03 03:53:10;;;;;;;17.60;7.65;;;22.90;64.30;24.40;100594.00;;;;4947776;28;20214;-79
2023/10/03 03:55:38;;;;;;;14.10;5.88;;;23.00;64.30;24.40;100599.00;;;;4949001;28;20210;-80
2023/10/03 03:58:07;;;;;;;21.42;6.60;;;23.00;64.20;24.50;100603.00;;;;4952254;28;20759;-78
2023/10/03 04:00:37;;;;;;;9.32;5.93;;;23.00;64.10;24.50;100620.00;;;;4946844;28;20239;-78
2023/10/03 04:03:11;;;;;;;10.70;5.47;;;23.10;64.10;24.50;100629.00;;;;4935952;28;20207;-79
2023/10/03 04:05:40;;;;;;;13.43;5.78;;;23.10;63.90;24.50;100646.00;;;;4947273;28;20199;-78
2023/10/03 04:08:07;;;;;;;10.77;4.82;;;23.20;63.70;24.50;100635.00;;;;4948803;29;20200;-79
2023/10/03 04:10:37;;;;;;;9.40;4.95;;;23.20;63.40;24.50;100627.00;;;;4948113;29;20210;-78
2023/10/03 04:13:09;;;;;;;9.18;4.20;;;23.20;63.20;24.50;100654.00;;;;4948404;28;20282;-78
2023/10/03 04:15:39;;;;;;;6.03;3.30;;;23.20;63.20;24.50;100650.00;;;;4950498;28;20574;-79
2023/10/03 04:18:06;;;;;;;8.77;3.83;;;23.20;63.10;24.50;100641.00;;;;4954406;28;20227;-79
2023/10/03 04:20:35;;;;;;;6.15;3.47;;;23.20;63.10;24.50;100642.00;;;;4946728;28;20979;-79
2023/10/03 04:23:05;;;;;;;9.35;3.33;;;23.20;63.00;24.50;100636.00;;;;4947229;28;20207;-78
2023/10/03 04:25:33;;;;;;;9.32;3.45;;;23.20;62.90;24.50;100647.00;;;;4947939;28;20203;-78
2023/10/03 04:28:01;;;;;;;9.35;4.07;;;23.30;63.10;24.50;100666.00;;;;4947739;28;20575;-78
2023/10/03 04:30:30;;;;;;;9.57;3.72;;;23.20;63.00;24.50;100664.00;;;;4947534;28;20218;-79
2023/10/03 04:32:57;;;;;;;8.55;3.40;;;23.20;63.00;24.50;100663.00;;;;4951701;28;20211;-79
2023/10/03 04:35:25;;;;;;;4.47;2.63;;;23.20;63.10;24.40;100659.00;;;;4946610;28;20657;-78
2023/10/03 04:37:56;;;;;;;7.70;3.63;;;23.20;63.20;24.40;100669.00;;;;4946400;28;20211;-79
2023/10/03 04:40:28;;;;;;;8.77;3.40;;;23.20;63.20;24.40;100656.00;;;;4947421;28;20231;-78
2023/10/03 04:42:57;;;;;;;8.15;3.78;;;23.20;63.20;24.40;100663.00;;;;4947328;29;20282;-79
2023/10/03 04:45:25;;;;;;;9.27;4.38;;;23.10;63.20;24.40;100650.00;;;;4947785;28;20203;-79
2023/10/03 04:47:53;;;;;;;7.63;3.53;;;23.10;63.20;24.40;100661.00;;;;4943986;28;20669;-78
2023/10/03 04:50:25;;;;;;;8.02;3.75;;;23.10;63.30;24.40;100652.00;;;;4943701;28;20707;-79
2023/10/03 04:52:53;;;;;;;6.35;2.83;;;23.10;63.30;24.40;100664.00;;;;4947356;28;20297;-80
2023/10/03 04:55:24;;;;;;;6.78;3.63;;;23.10;63.30;24.40;100670.00;;;;4947306;28;20289;-79
2023/10/03 04:57:52;;;;;;;10.68;3.97;;;23.00;63.30;24.40;100668.00;;;;4948239;28;20665;-79
2023/10/03 05:00:22;;;;;;;5.28;3.35;;;23.00;63.30;24.30;100661.00;;;;4944918;28;20226;-79
2023/10/03 05:02:52;;;;;;;6.13;3.25;;;23.00;63.30;24.30;100657.00;;;;4947108;28;20192;-79
2023/10/03 05:05:22;;;;;;;8.35;3.50;;;23.00;63.30;24.30;100652.00;;;;4948031;28;20249;-79
2023/10/03 05:07:52;;;;;;;7.18;3.13;;;23.00;63.30;24.30;100660.00;;;;4959440;28;20199;-78
2023/10/03 05:10:20;;;;;;;7.90;2.83;;;22.90;63.30;24.30;100666.00;;;;4944615;28;20210;-78
2023/10/03 05:12:51;;;;;;;4.90;2.67;;;22.90;63.10;24.20;100664.00;;;;4942010;29;20207;-79
2023/10/03 05:15:20;;;;;;;3.97;2.65;;;22.90;63.10;24.20;100664.00;;;;4945703;29;20218;-78
2023/10/03 05:17:48;;;;;;;6.45;2.85;;;22.90;63.10;24.20;100670.00;;;;4942604;28;20195;-79
2023/10/03 05:20:18;;;;;;;9.05;2.92;;;22.80;63.00;24.20;100681.00;;;;4942845;28;20222;-80
2023/10/03 05:22:46;;;;;;;4.40;2.40;;;22.80;63.30;24.10;100678.00;;;;4949880;28;20234;-80
2023/10/03 05:25:17;;;;;;;5.18;3.03;;;22.80;63.00;24.10;100684.00;;;;4947405;28;20252;-80
2023/10/03 05:27:47;;;;;;;6.82;2.35;;;22.70;62.90;24.10;100685.00;;;;4947386;28;20237;-80
2023/10/03 05:30:16;;;;;;;5.07;2.70;;;22.70;62.90;24.10;100691.00;;;;4946681;28;20215;-79
2023/10/03 05:32:43;;;;;;;4.90;2.45;;;22.70;62.90;24.00;100668.00;;;;4947375;28;20201;-79
2023/10/03 05:35:12;;;;;;;4.57;2.35;;;22.70;62.90;24.00;100677.00;;;;4946691;28;20211;-78
2023/10/03 05:37:40;;;;;;;3.67;2.38;;;22.60;62.90;24.00;100673.00;;;;4943850;28;20207;-79
2023/10/03 05:40:12;;;;;;;6.22;2.90;;;22.60;63.00;24.00;100686.00;;;;4948331;28;20310;-79
2023/10/03 05:42:43;;;;;;;6.25;2.28;;;22.60;63.00;24.00;100693.00;;;;4945318;28;20203;-80
2023/10/03 05:45:12;;;;;;;8.43;2.70;;;22.60;63.10;24.00;100690.00;;;;4946070;29;20294;-80
2023/10/03 05:47:42;;;;;;;7.70;2.78;;;22.60;63.10;23.90;100683.00;;;;4941257;28;20213;-80
2023/10/03 05:50:10;;;;;;;5.30;2.38;;;22.60;63.10;23.90;100698.00;;;;4945345;28;20664;-79
2023/10/03 05:52:37;;;;;;;4.45;2.72;;;22.50;63.10;23.90;100698.00;;;;4945957;28;20207;-77
2023/10/03 05:55:05;;;;;;;4.90;2.60;;;22.50;63.10;23.90;100711.00;;;;4949662;28;20210;-79
2023/10/03 05:57:33;;;;;;;5.13;2.45;;;22.60;63.20;23.90;100709.00;;;;4945320;28;20203;-82
2023/10/03 06:00:00;;;;;;;10.50;2.95;;;22.50;63.20;23.90;100708.00;;;;4948304;28;20222;-80
2023/10/03 06:02:28;;;;;;;4.70;2.63;;;22.50;63.20;23.90;100712.00;;;;4948293;28;20292;-80
2023/10/03 06:04:56;;;;;;;4.93;2.90;;;22.60;63.30;23.90;100714.00;;;;4950389;28;20203;-81
2023/10/03 06:07:23;;;;;;;4.32;2.20;;;22.60;63.30;24.00;100727.00;;;;4950570;28;20203;-81
2023/10/03 06:09:51;;;;;;;6.07;2.30;;;22.50;63.30;24.00;100724.00;;;;4949700;28;20253;-81
2023/10/03 06:12:18;;;;;;;7.05;2.78;;;22.60;63.40;23.90;100717.00;;;;4949556;28;20265;-81
2023/10/03 06:14:45;;;;;;;5.45;2.17;;;22.50;63.30;23.90;100715.00;;;;4944481;28;20420;-81
2023/10/03 06:17:15;;;;;;;4.68;1.98;;;22.50;63.30;23.90;100727.00;;;;4950209;28;20207;-80
2023/10/03 06:19:42;;;;;;;4.55;2.50;;;22.50;63.30;23.90;100703.00;;;;4949513;29;20261;-81
2023/10/03 06:22:12;;;;;;;5.95;2.75;;;22.50;63.30;23.90;100719.00;;;;4949093;28;20199;-81
2023/10/03 06:24:40;;;;;;;6.57;2.55;;;22.50;63.40;23.90;100741.00;;;;4949779;28;20203;-81
2023/10/03 06:27:09;;;;;;;6.03;2.58;;;22.50;63.40;23.90;100739.00;;;;4949040;28;20207;-80
2023/10/03 06:29:38;;;;;;;3.60;2.60;;;22.60;63.50;23.90;100738.00;;;;4948942;29;20219;-80
2023/10/03 06:32:05;;;;;;;7.07;3.03;;;22.50;63.50;23.90;100729.00;;;;4953566;28;20200;-79
2023/10/03 06:34:33;;;;;;;7.75;3.05;;;22.60;63.50;23.90;100755.00;;;;4950036;28;20211;-80
2023/10/03 06:37:00;;;;;;;4.38;1.92;;;22.50;63.50;23.90;100745.00;;;;4950106;28;20200;-80
2023/10/03 06:39:29;;;;;;;5.45;2.42;;;22.60;63.50;23.90;100748.00;;;;4948035;28;20226;-80
2023/10/03 06:41:56;;;;;;;6.97;3.05;;;22.60;63.50;24.00;100760.00;;;;4948917;29;20227;-79
2023/10/03 06:44:24;;;;;;;6.18;2.75;;;22.60;63.50;24.00;100774.00;;;;4949957;29;20285;-80
2023/10/03 06:46:51;;;;;;;4.68;2.67;;;22.60;64.30;23.90;100774.00;;;;4949810;28;20277;-80
2023/10/03 06:49:22;;;;;;;4.28;2.35;;;22.60;63.60;23.90;100755.00;;;;4953138;28;20681;-81
2023/10/03 06:51:50;;;;;;;3.25;1.98;;;22.60;63.60;23.90;100782.00;;;;4949499;28;20207;-80
2023/10/03 06:54:17;;;;;;;5.38;2.08;;;22.60;63.70;23.90;100784.00;;;;4949719;28;20203;-81
2023/10/03 06:56:45;;;;;;;3.72;2.15;;;22.50;63.80;23.90;100781.00;;;;4947866;28;20657;-80
2023/10/03 06:59:12;;;;;;;6.65;2.40;;;22.50;63.80;23.90;100776.00;;;;4949814;28;20207;-81
2023/10/03 07:01:39;;;;;;;5.40;1.98;;;22.50;63.70;23.90;100772.00;;;;4949227;28;20229;-80
2023/10/03 07:04:07;;;;;;;3.72;2.00;;;22.50;63.80;23.90;100791.00;;;;4948206;29;20199;-81
2023/10/03 07:06:34;;;;;;;4.55;1.88;;;22.50;63.80;23.90;100789.00;;;;4949107;28;20211;-80
2023/10/03 07:09:05;;;;;;;5.00;1.83;;;22.50;63.90;23.90;100812.00;;;;4949073;28;20252;-80
2023/10/03 07:11:32;;;;;;;2.20;1.25;;;22.50;63.80;23.90;100817.00;;;;4950029;28;20677;-80
2023/10/03 07:14:01;;;;;;;3.97;1.83;;;22.40;63.80;23.80;100824.00;;;;4950862;28;20236;-80
2023/10/03 07:16:30;;;;;;;4.15;1.48;;;22.50;63.90;23.90;100831.00;;;;4950009;28;20199;-80
2023/10/03 07:18:57;;;;;;;5.57;1.80;;;22.50;64.00;23.90;100831.00;;;;4949928;28;20206;-80
2023/10/03 07:21:26;;;;;;;3.25;1.35;;;22.40;63.90;23.90;100832.00;;;;4949555;28;20215;-80
2023/10/03 07:23:53;;;;;;;2.90;1.63;;;22.40;63.90;23.90;100833.00;;;;4952705;28;20203;-81
2023/10/03 07:26:20;;;;;;;3.63;1.55;;;22.40;63.90;23.90;100834.00;;;;4949757;28;20195;-81
2023/10/03 07:28:47;;;;;;;6.20;1.88;;;22.40;63.80;23.90;100838.00;;;;4948912;28;20219;-79
2023/10/03 07:31:15;;;;;;;2.80;1.40;;;22.40;63.80;23.90;100844.00;;;;4949025;28;20203;-80
2023/10/03 07:33:43;;;;;;;2.22;1.00;;;22.40;63.80;23.90;100843.00;;;;4949479;29;20202;-80
2023/10/03 07:36:11;;;;;;;2.38;1.35;;;22.50;63.80;23.90;100836.00;;;;4949468;28;20622;-79
2023/10/03 07:38:38;;;;;;;4.13;1.23;;;22.50;63.90;23.90;100823.00;;;;4950901;28;20203;-80
2023/10/03 07:41:09;;;;;;;10.93;1.20;;;22.40;63.90;23.90;100817.00;;;;4982107;28;20686;-81
2023/10/03 07:43:37;;;;;;;3.28;1.30;;;22.50;64.00;23.90;100839.00;;;;4948864;28;20205;-80
2023/10/03 07:46:04;;;;;;;3.30;1.20;;;22.50;63.90;23.90;100847.00;;;;4949136;28;20574;-80
2023/10/03 07:48:32;;;;;;;2.67;0.95;;;22.50;63.90;23.90;100861.00;;;;4949112;28;20195;-81
2023/10/03 07:51:05;;;;;;;3.40;0.85;;;22.50;63.90;23.90;100865.00;;;;4948193;28;20531;-81
2023/10/03 07:53:32;;;;;;;2.40;0.80;;;22.50;63.90;23.90;100882.00;;;;4948843;28;20223;-80
2023/10/03 07:55:59;;;;;;;4.18;1.00;;;22.40;63.80;23.80;100885.00;;;;4963437;28;20211;-81
2023/10/03 07:58:32;;;;;;;4.13;1.13;;;22.40;63.90;23.80;100894.00;;;;4978307;28;20226;-80
2023/10/03 08:00:59;;;;;;;3.67;1.10;;;22.40;64.00;23.80;100904.00;;;;4948649;28;20227;-80
2023/10/03 08:03:28;;;;;;;1.73;0.70;;;22.40;64.10;23.80;100917.00;;;;4947638;28;20203;-81
2023/10/03 08:05:57;;;;;;;5.47;0.90;;;22.40;64.10;23.70;100930.00;;;;4948715;29;20207;-79
2023/10/03 08:08:25;;;;;;;4.00;0.90;;;22.30;64.30;23.70;100918.00;;;;4948952;28;20210;-80
2023/10/03 08:10:52;;;;;;;3.28;0.82;;;22.30;64.40;23.70;100925.00;;;;4948241;28;20226;-80
2023/10/03 08:13:19;;;;;;;5.70;1.05;;;22.20;64.40;23.70;100934.00;;;;4952429;28;20627;-81
2023/10/03 08:15:47;;;;;;;1.33;0.60;;;22.30;64.80;23.60;100945.00;;;;4946872;28;20696;-80
2023/10/03 08:18:17;;;;;;;3.17;0.50;;;22.20;64.80;23.60;100963.00;;;;4951698;28;20195;-80
2023/10/03 08:20:53;;;;;;;0.85;0.52;;;22.20;64.70;23.50;100975.00;;;;4948564;28;20662;-80
2023/10/03 08:23:21;;;;;;;1.38;0.55;;;22.20;65.30;23.50;100959.00;;;;4948652;28;20195;-80
2023/10/03 08:25:48;;;;;;;1.77;0.40;;;22.10;64.40;23.50;100981.00;;;;4948195;28;20195;-80
2023/10/03 08:28:20;;;;;;;1.13;0.50;;;22.00;64.30;23.40;100982.00;;;;4948168;28;20191;-80
2023/10/03 08:30:47;;;;;;;1.70;0.80;;;22.00;64.40;23.40;100996.00;;;;4951067;28;20253;-80
2023/10/03 08:33:16;;;;;;;1.67;0.73;;;22.00;64.40;23.30;101003.00;;;;4948227;28;20199;-80
2023/10/03 08:35:43;;;;;;;5.63;0.70;;;21.90;64.30;23.30;101012.00;;;;4948335;28;20202;-80
2023/10/03 08:38:13;;;;;;;1.40;0.50;;;21.90;64.40;23.30;101008.00;;;;4948199;28;20672;-80
2023/10/03 08:40:44;;;;;;;0.63;0.32;;;21.90;64.40;23.20;101022.00;;;;4946569;29;20731;-80
2023/10/03 08:43:13;;;;;;;0.82;0.30;;;21.80;64.20;23.20;101034.00;;;;4947636;28;20269;-80
2023/10/03 08:45:43;;;;;;;1.00;0.20;;;21.80;64.20;23.10;101038.00;;;;4942005;29;20199;-80
2023/10/03 08:48:11;;;;;;;1.00;0.47;;;21.80;64.10;23.10;101044.00;;;;4951791;28;20249;-80
2023/10/03 08:50:46;;;;;;;2.25;0.40;;;21.70;64.10;23.00;101044.00;;;;4930808;28;20187;-80
2023/10/03 08:53:16;;;;;;;3.85;0.82;;;21.70;63.90;23.00;101059.00;;;;4948277;28;20225;-79
2023/10/03 08:55:45;;;;;;;4.72;0.47;;;21.60;63.80;23.00;101065.00;;;;4947594;28;20199;-80
2023/10/03 08:58:14;;;;;;;2.53;0.60;;;21.60;64.50;23.00;101069.00;;;;4947601;28;20196;-80
2023/10/03 09:00:51;;;;;;;3.35;0.55;;;21.60;63.90;22.90;101074.00;;;;4947633;28;20700;-79
2023/10/03 09:03:20;;;;;;;2.25;0.73;;;21.50;63.90;22.90;101080.00;;;;4947518;28;20203;-80
2023/10/03 09:05:49;;;;;;;1.27;0.52;;;21.50;63.90;22.90;101067.00;;;;5027735;28;20204;-80
2023/10/03 09:08:17;;;;;;;2.20;0.57;;;21.50;63.90;22.90;101085.00;;;;4946832;28;20669;-80
2023/10/03 09:10:53;;;;;;;2.17;0.63;;;21.50;63.90;22.80;101105.00;;;;4947657;28;20306;-79
2023/10/03 09:13:24;;;;;;;0.65;0.30;;;21.50;63.90;22.80;101111.00;;;;4938981;28;20283;-79
2023/10/03 09:15:59;;;;;;;1.23;0.52;;;21.40;63.80;22.70;101123.00;;;;4947570;28;20599;-79
2023/10/03 09:18:28;;;;;;;1.75;0.30;;;21.40;63.70;22.70;101137.00;;;;4977028;28;20187;-79
2023/10/03 09:20:59;;;;;;;1.05;0.17;;;21.30;63.60;22.70;101124.00;;;;4950169;28;20234;-80
2023/10/03 09:23:37;;;;;;;0.55;0.20;;;21.30;63.70;22.60;101120.00;;;;4948032;28;20199;-80
2023/10/03 09:26:08;;;;;;;1.80;0.40;;;21.30;63.80;22.60;101126.00;;;;4946618;28;20272;-80
2023/10/03 09:28:40;;;;;;;0.77;0.40;;;21.20;63.90;22.70;101138.00;;;;4947724;28;20315;-80
2023/10/03 09:31:09;;;;;;;5.22;0.57;;;21.20;63.90;22.60;101140.00;;;;4947512;28;20249;-80
2023/10/03 09:33:40;;;;;;;2.22;0.30;;;21.20;64.00;22.60;101134.00;;;;4947242;28;20278;-80
2023/10/03 09:36:08;;;;;;;1.42;0.43;;;21.20;63.90;22.70;101150.00;;;;4947254;28;20196;-81
2023/10/03 09:38:44;;;;;;;1.73;0.47;;;21.20;64.10;22.70;101146.00;;;;4949717;28;20207;-81
2023/10/03 09:41:18;;;;;;;1.15;0.40;;;21.20;64.00;22.70;101159.00;;;;4947223;28;20280;-80
2023/10/03 09:43:50;;;;;;;0.98;0.40;;;21.20;63.90;22.70;101179.00;;;;4946477;29;20195;-80
2023/10/03 09:46:26;;;;;;;1.45;0.20;;;21.30;63.80;22.70;101186.00;;;;4946309;28;20206;-80
2023/10/03 09:48:55;;;;;;;1.10;0.40;;;21.20;63.80;22.70;101194.00;;;;4947693;28;20761;-80
2023/10/03 09:51:36;;;;;;;0.73;0.38;;;21.30;63.80;22.70;101188.00;;;;4947365;28;20214;-80
2023/10/03 09:54:10;;;;;;;1.83;0.93;;;21.30;63.80;22.60;101199.00;;;;4943718;28;20191;-79
2023/10/03 09:56:41;;;;;;;1.65;0.40;;;21.30;63.80;22.70;101200.00;;;;4950299;28;20275;-80
2023/10/03 09:59:08;;;;;;;5.00;0.80;;;21.20;63.80;22.70;101207.00;;;;4947830;28;20219;-79
2023/10/03 10:01:39;;;;;;;0.57;0.28;;;21.20;63.80;22.70;101205.00;;;;4946771;28;20258;-79
2023/10/03 10:04:09;;;;;;;2.45;0.73;;;21.20;63.60;22.70;101208.00;;;;4947228;28;20207;-80
2023/10/03 10:06:47;;;;;;;0.65;0.28;;;21.20;63.60;22.60;101197.00;;;;4947255;28;20203;-79
2023/10/03 10:09:27;;;;;;;1.13;0.30;;;21.20;63.60;22.60;101205.00;;;;4946778;28;20195;-79
2023/10/03 10:12:15;;;;;;;1.92;0.35;;;21.20;63.60;22.60;101211.00;;;;4950603;28;20207;-79
2023/10/03 10:15:14;;;;;;;4.20;1.05;;;21.20;63.40;22.60;101220.00;;;;4946998;28;20207;-78
2023/10/03 10:17:45;;;;;;;1.30;0.60;;;21.20;63.30;22.70;101212.00;;;;4946978;28;20196;-79
2023/10/03 10:20:17;;;;;;;3.92;0.50;;;21.30;63.50;22.80;101215.00;;;;4927753;28;20658;-80
2023/10/03 10:23:16;;;;;;;2.75;0.57;;;21.30;63.50;22.70;101222.00;;;;4927783;28;20290;-79
2023/10/03 10:25:56;;;;;;;4.40;0.22;;;21.30;63.10;22.80;101227.00;;;;4927659;28;20262;-79
2023/10/03 10:28:30;;;;;;;1.58;0.30;;;21.40;63.20;22.80;101226.00;;;;4927968;28;20235;-79
2023/10/03 10:31:36;;;;;;;3.90;0.45;;;21.40;62.90;22.70;101237.00;;;;5045024;28;20740;-79
2023/10/03 10:34:35;;;;;;;1.08;0.35;;;21.40;62.80;22.60;101245.00;;;;5017256;28;20627;-78
2023/10/03 10:37:05;;;;;;;2.65;0.60;;;21.40;62.80;22.70;101254.00;;;;4942784;28;20203;-78
2023/10/03 10:43:06;;;;;;;1.02;0.45;;;21.30;62.40;22.40;101270.00;;;;4929928;28;20266;-80
2023/10/03 10:45:44;;;;;;;2.17;0.35;;;21.30;62.50;22.50;101266.00;;;;4948365;28;20616;-79
2023/10/03 10:48:12;;;;;;;2.20;0.63;;;21.20;62.50;22.50;101276.00;;;;4931050;29;20253;-79
2023/10/03 10:51:13;;;;;;;1.15;0.47;;;21.20;62.60;22.30;101275.00;;;;4933107;29;20257;-79
2023/10/03 10:53:47;;;;;;;0.82;0.43;;;21.10;62.80;22.40;101289.00;;;;4940640;28;20209;-79
2023/10/03 10:56:15;;;;;;;3.97;0.57;;;21.10;62.90;22.40;101286.00;;;;4944087;28;20248;-79
2023/10/03 10:59:04;;;;;;;1.33;0.43;;;21.00;62.80;22.20;101298.00;;;;4938948;28;20225;-79